createdAt,value
2022-11-19T00:03:03.930Z,85.40
2022-11-19T00:05:52.658Z,85.40
2022-11-19T00:08:41.841Z,85.40
2022-11-19T00:11:47.793Z,85.50
2022-11-19T00:14:36.650Z,85.40
2022-11-19T00:17:26.421Z,85.40
2022-11-19T00:20:15.245Z,85.40
2022-11-19T00:23:04.244Z,85.40
2022-11-19T00:25:53.208Z,85.40
2022-11-19T00:28:43.254Z,85.40
2022-11-19T00:31:32.701Z,85.40
2022-11-19T00:34:22.551Z,85.50
2022-11-19T00:37:10.940Z,85.50
2022-11-19T00:39:59.232Z,85.50
2022-11-19T00:43:07.904Z,85.50
2022-11-19T00:45:56.018Z,85.50
2022-11-19T00:48:45.016Z,85.50
2022-11-19T00:51:34.985Z,85.50
2022-11-19T00:54:23.723Z,85.40
2022-11-19T00:57:11.964Z,86.00
2022-11-19T01:00:00.789Z,85.40
2022-11-19T01:02:49.045Z,85.40
2022-11-19T01:05:37.840Z,85.40
2022-11-19T01:08:27.540Z,85.40
2022-11-19T01:11:18.264Z,85.40
2022-11-19T01:14:07.471Z,85.40
2022-11-19T01:16:56.136Z,85.40
2022-11-19T01:19:44.476Z,85.40
2022-11-19T01:22:32.811Z,85.40
2022-11-19T01:25:22.446Z,86.00
2022-11-19T01:28:11.436Z,85.40
2022-11-19T01:30:59.764Z,85.40
2022-11-19T01:33:48.841Z,85.50
2022-11-19T01:36:37.828Z,85.40
2022-11-19T01:39:26.704Z,85.40
2022-11-19T01:42:42.128Z,85.40
2022-11-19T01:45:34.498Z,85.40
2022-11-19T01:48:26.035Z,85.40
2022-11-19T01:51:17.198Z,85.40
2022-11-19T01:54:09.824Z,85.40
2022-11-19T01:57:04.292Z,85.40
2022-11-19T01:59:54.430Z,85.40
2022-11-19T02:02:43.386Z,85.40
2022-11-19T02:05:31.730Z,85.40
2022-11-19T02:08:40.541Z,85.40
2022-11-19T02:11:58.909Z,85.40
2022-11-19T02:15:08.894Z,85.40
2022-11-19T02:18:24.444Z,85.40
2022-11-19T02:21:28.886Z,85.40
2022-11-19T02:24:41.440Z,85.40
2022-11-19T02:28:09.421Z,85.40
2022-11-19T02:31:08.055Z,85.50
2022-11-19T02:34:00.626Z,85.50
2022-11-19T02:36:55.510Z,85.50
2022-11-19T02:39:49.625Z,85.50
2022-11-19T02:42:47.909Z,85.50
2022-11-19T02:45:39.415Z,85.50
2022-11-19T02:48:32.815Z,85.50
2022-11-19T02:51:21.811Z,85.50
2022-11-19T02:54:10.278Z,85.50
2022-11-19T02:57:00.138Z,85.50
2022-11-19T03:00:14.985Z,85.50
2022-11-19T03:03:28.888Z,85.50
2022-11-19T03:06:21.642Z,85.50
2022-11-19T03:09:10.509Z,85.50
2022-11-19T03:12:05.257Z,85.50
2022-11-19T03:15:15.636Z,85.50
2022-11-19T03:18:08.339Z,85.50
2022-11-19T03:21:03.223Z,85.50
2022-11-19T03:23:56.369Z,85.50
2022-11-19T03:26:49.400Z,85.50
2022-11-19T03:29:42.653Z,85.50
2022-11-19T03:32:36.842Z,85.60
2022-11-19T03:35:29.743Z,85.60
2022-11-19T03:38:23.667Z,85.50
2022-11-19T03:41:16.801Z,85.60
2022-11-19T03:44:13.343Z,85.60
2022-11-19T03:47:06.274Z,85.60
2022-11-19T03:50:00.079Z,85.60
2022-11-19T03:52:48.234Z,85.60
2022-11-19T03:55:41.388Z,85.60
2022-11-19T03:58:35.054Z,85.60
2022-11-19T04:01:24.227Z,85.60
2022-11-19T04:04:29.839Z,85.60
2022-11-19T04:07:22.255Z,85.60
2022-11-19T04:10:11.031Z,85.50
2022-11-19T04:13:00.292Z,85.50
2022-11-19T04:15:49.857Z,85.60
2022-11-19T04:18:38.847Z,85.60
2022-11-19T04:21:26.946Z,85.50
2022-11-19T04:24:15.748Z,85.50
2022-11-19T04:27:03.744Z,85.60
2022-11-19T04:29:52.799Z,85.50
2022-11-19T04:32:42.374Z,85.60
2022-11-19T04:35:31.651Z,85.60
2022-11-19T04:38:19.538Z,85.50
2022-11-19T04:41:08.728Z,85.50
2022-11-19T04:43:56.708Z,85.50
2022-11-19T04:46:45.464Z,85.50
2022-11-19T04:49:35.149Z,85.50
2022-11-19T04:52:24.040Z,85.50
2022-11-19T04:55:12.209Z,85.50
2022-11-19T04:58:01.005Z,85.50
2022-11-19T05:00:50.733Z,85.50
2022-11-19T05:03:39.423Z,85.50
2022-11-19T05:06:28.875Z,85.50
2022-11-19T05:09:18.391Z,85.50
2022-11-19T05:12:07.980Z,85.50
2022-11-19T05:14:56.982Z,85.50
2022-11-19T05:17:46.568Z,85.50
2022-11-19T05:20:35.485Z,85.50
2022-11-19T05:23:25.540Z,85.50
2022-11-19T05:26:14.091Z,85.50
2022-11-19T05:29:02.167Z,85.60
2022-11-19T05:31:50.999Z,85.50
2022-11-19T05:34:39.135Z,85.60
2022-11-19T05:37:28.018Z,85.60
2022-11-19T05:40:18.072Z,85.60
2022-11-19T05:43:07.946Z,85.60
2022-11-19T05:45:56.276Z,85.60
2022-11-19T05:48:45.237Z,85.70
2022-11-19T05:51:33.460Z,85.50
2022-11-19T05:54:21.932Z,85.60
2022-11-19T05:57:11.974Z,85.60
2022-11-19T06:00:00.617Z,85.60
2022-11-19T06:02:48.984Z,85.60
2022-11-19T06:05:40.624Z,85.60
2022-11-19T06:08:29.509Z,85.60
2022-11-19T06:11:32.174Z,85.60
2022-11-19T06:14:23.916Z,85.60
2022-11-19T06:17:12.551Z,85.60
2022-11-19T06:20:01.563Z,85.60
2022-11-19T06:22:50.347Z,85.70
2022-11-19T06:25:38.609Z,85.70
2022-11-19T06:28:26.983Z,85.60
2022-11-19T06:31:16.656Z,85.70
2022-11-19T06:34:05.346Z,85.70
2022-11-19T06:36:53.745Z,85.70
2022-11-19T06:39:43.195Z,85.70
2022-11-19T06:42:37.248Z,86.30
2022-11-19T06:45:26.052Z,85.70
2022-11-19T06:48:15.415Z,85.70
2022-11-19T06:51:04.513Z,85.70
2022-11-19T06:53:52.935Z,85.70
2022-11-19T06:56:41.814Z,85.80
2022-11-19T06:59:30.350Z,86.30
2022-11-19T07:02:21.589Z,85.80
2022-11-19T07:05:11.310Z,85.80
2022-11-19T07:08:03.034Z,85.80
2022-11-19T07:10:51.659Z,85.70
2022-11-19T07:13:54.222Z,85.70
2022-11-19T07:16:42.102Z,85.70
2022-11-19T07:19:30.874Z,85.70
2022-11-19T07:22:20.474Z,85.70
2022-11-19T07:25:12.826Z,85.70
2022-11-19T07:28:00.965Z,85.70
2022-11-19T07:30:49.657Z,85.70
2022-11-19T07:33:39.398Z,85.70
2022-11-19T07:36:28.227Z,85.70
2022-11-19T07:39:18.260Z,85.70
2022-11-19T07:42:21.165Z,85.70
2022-11-19T07:45:13.529Z,85.60
2022-11-19T07:48:02.426Z,85.70
2022-11-19T07:50:56.487Z,85.70
2022-11-19T07:53:45.827Z,85.70
2022-11-19T07:56:35.401Z,85.70
2022-11-19T07:59:25.415Z,85.70
2022-11-19T08:02:14.193Z,85.70
2022-11-19T08:05:02.984Z,85.70
2022-11-19T08:07:50.945Z,85.70
2022-11-19T08:10:39.813Z,85.70
2022-11-19T08:13:29.485Z,85.70
2022-11-19T08:16:39.061Z,85.70
2022-11-19T08:19:27.788Z,85.70
2022-11-19T08:22:16.318Z,85.70
2022-11-19T08:25:06.331Z,85.70
2022-11-19T08:27:55.139Z,85.70
2022-11-19T08:30:46.661Z,85.60
2022-11-19T08:33:35.667Z,85.60
2022-11-19T08:36:24.086Z,85.60
2022-11-19T08:39:12.716Z,85.60
2022-11-19T08:42:18.331Z,85.70
2022-11-19T08:45:08.531Z,85.70
2022-11-19T08:48:00.736Z,85.70
2022-11-19T08:50:49.654Z,85.70
2022-11-19T08:53:38.202Z,85.60
2022-11-19T08:56:26.823Z,85.60
2022-11-19T08:59:15.286Z,85.70
2022-11-19T09:02:03.970Z,85.70
2022-11-19T09:04:53.869Z,85.70
2022-11-19T09:07:42.873Z,85.80
2022-11-19T09:10:31.043Z,85.80
2022-11-19T09:13:20.086Z,85.90
2022-11-19T09:16:09.675Z,85.90
2022-11-19T09:18:58.962Z,85.90
2022-11-19T09:21:48.941Z,85.90
2022-11-19T09:24:38.093Z,85.90
2022-11-19T09:27:26.261Z,86.00
2022-11-19T09:30:15.609Z,86.00
2022-11-19T09:33:04.658Z,86.00
2022-11-19T09:35:54.239Z,85.90
2022-11-19T09:38:43.983Z,86.00
2022-11-19T09:41:51.246Z,86.00
2022-11-19T09:44:54.605Z,86.00
2022-11-19T09:48:06.102Z,86.00
2022-11-19T09:50:59.566Z,86.00
2022-11-19T09:53:55.920Z,86.10
2022-11-19T09:56:46.866Z,86.10
2022-11-19T09:59:39.811Z,86.10
2022-11-19T10:02:28.778Z,86.10
2022-11-19T10:05:29.514Z,86.10
2022-11-19T10:08:31.323Z,86.70
2022-11-19T10:11:35.943Z,86.20
2022-11-19T10:14:49.031Z,86.20
2022-11-19T10:17:48.913Z,86.10
2022-11-19T10:20:53.177Z,86.10
2022-11-19T10:23:52.968Z,86.10
2022-11-19T10:26:43.754Z,86.10
2022-11-19T10:29:38.515Z,86.10
2022-11-19T10:32:32.771Z,86.10
2022-11-19T10:35:25.493Z,86.10
2022-11-19T10:38:19.933Z,86.10
2022-11-19T10:41:16.293Z,86.10
2022-11-19T10:44:37.372Z,86.10
2022-11-19T10:47:36.066Z,86.10
2022-11-19T10:50:26.258Z,86.20
2022-11-19T10:53:19.211Z,86.10
2022-11-19T10:56:13.567Z,86.10
2022-11-19T10:59:18.502Z,86.10
2022-11-19T11:02:27.776Z,86.20
2022-11-19T11:05:19.574Z,86.10
2022-11-19T11:08:12.394Z,86.10
2022-11-19T11:11:02.275Z,86.10
2022-11-19T11:14:08.178Z,86.10
2022-11-19T11:16:59.774Z,86.10
2022-11-19T11:19:58.081Z,86.10
2022-11-19T11:22:49.771Z,86.10
2022-11-19T11:25:39.460Z,86.10
2022-11-19T11:28:28.498Z,86.20
2022-11-19T11:31:34.115Z,86.10
2022-11-19T11:34:37.565Z,86.10
2022-11-19T11:37:27.232Z,86.10
2022-11-19T11:40:20.798Z,86.10
2022-11-19T11:43:17.083Z,86.10
2022-11-19T11:46:08.514Z,86.10
2022-11-19T11:49:01.007Z,86.20
2022-11-19T11:52:07.211Z,86.20
2022-11-19T11:54:58.402Z,86.20
2022-11-19T11:57:53.680Z,86.20
2022-11-19T12:00:43.916Z,86.30
2022-11-19T12:03:49.390Z,86.20
2022-11-19T12:06:59.559Z,86.30
2022-11-19T12:09:59.394Z,86.20
2022-11-19T12:12:56.853Z,86.20
2022-11-19T12:15:54.863Z,86.20
2022-11-19T12:18:54.698Z,86.20
2022-11-19T12:21:56.402Z,86.20
2022-11-19T12:25:06.558Z,86.30
2022-11-19T12:28:10.494Z,86.20
2022-11-19T12:31:13.097Z,86.30
2022-11-19T12:34:17.134Z,86.20
2022-11-19T12:37:21.088Z,86.20
2022-11-19T12:40:25.962Z,86.20
2022-11-19T12:43:27.244Z,86.20
2022-11-19T12:46:22.050Z,86.20
2022-11-19T12:49:47.937Z,86.20
2022-11-19T12:53:08.226Z,86.20
2022-11-19T12:56:10.460Z,86.20
2022-11-19T12:59:10.024Z,86.20
2022-11-19T13:02:01.189Z,86.20
2022-11-19T13:04:54.330Z,86.20
2022-11-19T13:07:47.968Z,86.20
2022-11-19T13:10:40.553Z,86.20
2022-11-19T13:13:31.692Z,86.20
2022-11-19T13:16:23.957Z,86.20
2022-11-19T13:19:22.828Z,86.80
2022-11-19T13:22:19.047Z,86.30
2022-11-19T13:25:17.438Z,86.30
2022-11-19T13:28:18.687Z,86.20
2022-11-19T13:31:15.104Z,86.30
2022-11-19T13:34:17.489Z,86.20
2022-11-19T13:37:13.062Z,86.20
2022-11-19T13:40:07.986Z,86.10
2022-11-19T13:46:29.030Z,86.10
2022-11-19T13:49:21.763Z,86.10
2022-11-19T13:52:14.531Z,86.10
2022-11-19T13:55:02.877Z,86.10
2022-11-19T13:57:51.791Z,86.00
2022-11-19T14:00:40.444Z,86.10
2022-11-19T14:03:49.570Z,86.00
2022-11-19T14:07:02.237Z,86.10
2022-11-19T14:09:59.632Z,86.00
2022-11-19T14:13:04.942Z,86.10
2022-11-19T14:16:34.159Z,86.00
2022-11-19T14:19:41.611Z,86.10
2022-11-19T14:23:01.332Z,86.00
2022-11-19T14:26:08.038Z,86.00
2022-11-19T14:28:57.257Z,86.00
2022-11-19T14:32:19.276Z,86.00
2022-11-19T14:35:43.254Z,86.00
2022-11-19T14:38:41.402Z,86.00
2022-11-19T14:41:32.838Z,86.00
2022-11-19T14:44:33.655Z,86.00
2022-11-19T14:47:37.570Z,86.00
2022-11-19T14:50:28.546Z,86.10
2022-11-19T14:53:21.434Z,86.10
2022-11-19T14:56:14.397Z,86.10
2022-11-19T14:59:10.419Z,86.10
2022-11-19T15:02:02.473Z,86.10
2022-11-19T15:04:56.646Z,86.00
2022-11-19T15:07:52.720Z,86.00
2022-11-19T15:11:05.575Z,86.10
2022-11-19T15:14:26.855Z,86.10
2022-11-19T15:17:16.891Z,86.10
2022-11-19T15:20:28.657Z,86.00
2022-11-19T15:23:27.269Z,86.00
2022-11-19T15:26:22.938Z,86.00
2022-11-19T15:29:18.917Z,86.10
2022-11-19T15:32:22.930Z,86.00
2022-11-19T15:35:39.745Z,86.10
2022-11-19T15:38:35.349Z,86.10
2022-11-19T15:41:27.449Z,86.00
2022-11-19T15:44:18.846Z,86.00
2022-11-19T15:47:13.885Z,86.00
2022-11-19T15:50:05.518Z,86.00
2022-11-19T15:53:00.782Z,86.00
2022-11-19T15:55:52.969Z,86.10
2022-11-19T15:58:44.365Z,86.10
2022-11-19T16:01:34.541Z,86.00
2022-11-19T16:04:23.583Z,86.10
2022-11-19T16:07:13.732Z,86.10
2022-11-19T16:10:02.481Z,86.10
2022-11-19T16:13:16.670Z,86.10
2022-11-19T16:16:23.556Z,86.00
2022-11-19T16:19:15.064Z,86.00
2022-11-19T16:22:04.289Z,86.00
2022-11-19T16:25:03.303Z,86.00
2022-11-19T16:27:57.181Z,86.00
2022-11-19T16:30:49.086Z,86.00
2022-11-19T16:33:37.395Z,86.00
2022-11-19T16:36:29.979Z,86.00
2022-11-19T16:39:24.561Z,86.00
2022-11-19T16:42:18.041Z,86.10
2022-11-19T16:45:10.053Z,86.00
2022-11-19T16:48:00.019Z,86.00
2022-11-19T16:50:49.079Z,86.00
2022-11-19T16:53:46.806Z,86.10
2022-11-19T16:56:52.855Z,86.10
2022-11-19T16:59:42.889Z,86.00
2022-11-19T17:02:37.203Z,86.00
2022-11-19T17:05:29.172Z,86.00
2022-11-19T17:08:23.916Z,86.00
2022-11-19T17:11:37.705Z,86.00
2022-11-19T17:14:48.244Z,86.10
2022-11-19T17:17:42.135Z,86.00
2022-11-19T17:21:01.912Z,86.10
2022-11-19T17:23:52.297Z,86.00
2022-11-19T17:26:40.920Z,86.10
2022-11-19T17:29:29.493Z,86.00
2022-11-19T17:32:19.280Z,86.10
2022-11-19T17:35:10.679Z,86.10
2022-11-19T17:38:00.839Z,86.00
2022-11-19T17:40:50.614Z,86.00
2022-11-19T17:43:57.799Z,86.10
2022-11-19T17:46:46.070Z,86.10
2022-11-19T17:49:36.128Z,86.10
2022-11-19T17:52:26.779Z,86.10
2022-11-19T17:55:19.477Z,86.10
2022-11-19T17:58:08.049Z,86.00
2022-11-19T18:00:57.007Z,86.10
2022-11-19T18:03:45.731Z,86.00
2022-11-19T18:06:37.493Z,86.10
2022-11-19T18:09:25.850Z,86.10
2022-11-19T18:12:17.071Z,86.10
2022-11-19T18:15:06.619Z,86.20
2022-11-19T18:17:55.652Z,86.10
2022-11-19T18:20:43.796Z,86.20
2022-11-19T18:23:33.468Z,86.10
2022-11-19T18:26:23.565Z,86.20
2022-11-19T18:29:12.664Z,86.20
2022-11-19T18:32:01.252Z,86.10
2022-11-19T18:34:49.994Z,86.20
2022-11-19T18:37:38.283Z,86.20
2022-11-19T18:40:28.162Z,86.20
2022-11-19T18:43:39.721Z,86.10
2022-11-19T18:46:27.888Z,86.10
2022-11-19T18:49:16.154Z,86.10
2022-11-19T18:52:05.943Z,86.10
2022-11-19T18:54:54.655Z,86.10
2022-11-19T18:57:44.292Z,86.10
2022-11-19T19:00:32.863Z,86.10
2022-11-19T19:03:21.673Z,86.10
2022-11-19T19:06:12.708Z,86.10
2022-11-19T19:09:01.491Z,86.20
2022-11-19T19:12:13.025Z,86.10
2022-11-19T19:15:04.644Z,86.10
2022-11-19T19:17:53.291Z,86.10
2022-11-19T19:20:41.778Z,86.10
2022-11-19T19:23:30.823Z,86.10
2022-11-19T19:26:20.153Z,86.10
2022-11-19T19:29:08.692Z,86.10
2022-11-19T19:31:59.554Z,86.10
2022-11-19T19:34:47.724Z,86.10
2022-11-19T19:37:36.712Z,86.10
2022-11-19T19:40:25.316Z,86.10
2022-11-19T19:43:14.078Z,86.00
2022-11-19T19:46:06.127Z,86.10
2022-11-19T19:48:57.422Z,86.10
2022-11-19T19:51:46.648Z,86.10
2022-11-19T19:54:35.140Z,86.10
2022-11-19T19:57:23.481Z,86.10
2022-11-19T20:00:13.073Z,86.10
2022-11-19T20:03:01.447Z,86.10
2022-11-19T20:05:51.676Z,86.10
2022-11-19T20:08:41.224Z,86.10
2022-11-19T20:11:30.191Z,86.70
2022-11-19T20:14:18.854Z,86.10
2022-11-19T20:17:07.152Z,86.10
2022-11-19T20:19:55.406Z,86.10
2022-11-19T20:22:45.577Z,86.10
2022-11-19T20:25:34.185Z,86.00
2022-11-19T20:28:22.814Z,86.10
2022-11-19T20:31:13.237Z,86.10
2022-11-19T20:34:03.564Z,86.10
2022-11-19T20:36:51.625Z,86.10
2022-11-19T20:39:41.681Z,86.10
2022-11-19T20:42:47.597Z,86.10
2022-11-19T20:45:36.398Z,86.10
2022-11-19T20:48:24.532Z,86.10
2022-11-19T20:51:14.082Z,86.20
2022-11-19T20:54:02.354Z,86.10
2022-11-19T20:56:53.161Z,86.10
2022-11-19T20:59:41.655Z,86.10
2022-11-19T21:02:30.558Z,86.10
2022-11-19T21:05:19.155Z,86.10
2022-11-19T21:08:08.054Z,86.10
2022-11-19T21:11:00.850Z,86.10
2022-11-19T21:13:51.288Z,86.20
2022-11-19T21:16:39.335Z,86.10
2022-11-19T21:19:28.876Z,86.10
2022-11-19T21:22:17.362Z,86.10
2022-11-19T21:25:11.209Z,86.20
2022-11-19T21:28:01.538Z,86.10
2022-11-19T21:30:54.351Z,86.10
2022-11-19T21:33:43.050Z,86.10
2022-11-19T21:36:31.342Z,86.20
2022-11-19T21:39:21.682Z,86.20
2022-11-19T21:42:10.436Z,86.10
2022-11-19T21:44:59.037Z,86.20
2022-11-19T21:47:49.052Z,86.10
2022-11-19T21:50:40.655Z,86.10
2022-11-19T21:53:29.662Z,86.10
2022-11-19T21:56:17.785Z,86.10
2022-11-19T21:59:06.332Z,86.10
2022-11-19T22:01:55.081Z,86.10
2022-11-19T22:04:44.738Z,86.10
2022-11-19T22:07:33.304Z,86.10
2022-11-19T22:10:22.419Z,86.10
2022-11-19T22:13:10.616Z,86.10
2022-11-19T22:16:01.398Z,86.10
2022-11-19T22:18:49.907Z,86.20
2022-11-19T22:21:40.613Z,86.10
2022-11-19T22:24:29.175Z,86.10
2022-11-19T22:27:17.627Z,86.10
2022-11-19T22:30:06.925Z,86.10
2022-11-19T22:32:55.742Z,86.10
2022-11-19T22:35:43.824Z,86.10
2022-11-19T22:38:35.452Z,86.10
2022-11-19T22:41:24.349Z,86.10
2022-11-19T22:44:12.924Z,86.00
2022-11-19T22:47:01.019Z,86.10
2022-11-19T22:49:49.519Z,86.10
2022-11-19T22:52:37.952Z,86.10
2022-11-19T22:55:28.402Z,86.10
2022-11-19T22:58:16.736Z,86.00
2022-11-19T23:01:05.266Z,86.10
2022-11-19T23:03:54.645Z,86.10
2022-11-19T23:06:43.408Z,86.10
2022-11-19T23:09:31.821Z,86.10
2022-11-19T23:12:39.366Z,86.10
2022-11-19T23:15:27.265Z,86.10
2022-11-19T23:18:16.604Z,86.10
2022-11-19T23:21:06.475Z,86.10
2022-11-19T23:23:56.075Z,86.10
2022-11-19T23:26:44.885Z,86.10
2022-11-19T23:29:35.412Z,86.10
2022-11-19T23:32:23.607Z,86.20
2022-11-19T23:35:12.306Z,86.20
2022-11-19T23:38:00.581Z,86.20
2022-11-19T23:40:49.644Z,86.20
2022-11-19T23:43:38.584Z,86.20
2022-11-19T23:46:30.522Z,86.20
2022-11-19T23:49:18.825Z,86.20
2022-11-19T23:52:07.696Z,86.20
2022-11-19T23:54:55.810Z,86.20
2022-11-19T23:57:44.371Z,86.20
